createdAt,value
2023-03-28T00:00:16.768Z,98122.13
2023-03-28T00:01:18.673Z,98126.41
2023-03-28T00:02:22.885Z,98127.31
2023-03-28T00:03:27.165Z,98127.34
2023-03-28T00:04:30.013Z,98136.84
2023-03-28T00:05:32.415Z,98139.44
2023-03-28T00:06:35.388Z,98132.69
2023-03-28T00:07:37.264Z,98127.72
2023-03-28T00:08:40.629Z,98130.31
2023-03-28T00:09:43.378Z,98130.44
2023-03-28T00:10:46.569Z,98130.53
2023-03-28T00:11:48.884Z,98133.31
2023-03-28T00:12:52.139Z,98128.38
2023-03-28T00:13:58.136Z,98125.94
2023-03-28T00:15:00.878Z,98132.88
2023-03-28T00:16:05.784Z,98135.47
2023-03-28T00:17:07.728Z,98128.78
2023-03-28T00:18:12.632Z,98131.50
2023-03-28T00:19:16.243Z,98130.75
2023-03-28T00:20:19.753Z,98127.50
2023-03-28T00:21:24.025Z,98125.13
2023-03-28T00:22:30.569Z,98132.09
2023-03-28T00:23:34.009Z,98126.38
2023-03-28T00:24:38.810Z,98129.09
2023-03-28T00:25:41.648Z,98129.19
2023-03-28T00:26:49.410Z,98121.69
2023-03-28T00:27:51.496Z,98127.78
2023-03-28T00:28:54.897Z,98118.59
2023-03-28T00:29:56.692Z,98135.66
2023-03-28T00:31:03.928Z,98127.31
2023-03-28T00:32:06.924Z,98130.84
2023-03-28T00:33:08.848Z,98130.16
2023-03-28T00:34:13.260Z,98127.75
2023-03-28T00:35:15.910Z,98127.84
2023-03-28T00:36:22.910Z,98128.78
2023-03-28T00:37:25.546Z,98124.63
2023-03-28T00:38:28.884Z,98122.94
2023-03-28T00:39:31.372Z,98126.47
2023-03-28T00:40:37.769Z,98130.81
2023-03-28T00:41:42.594Z,98125.84
2023-03-28T00:42:45.692Z,98124.28
2023-03-28T00:43:49.833Z,98128.00
2023-03-28T00:44:54.754Z,98122.28
2023-03-28T00:46:08.311Z,98130.03
2023-03-28T00:47:25.512Z,98119.94
2023-03-28T00:48:28.331Z,98131.84
2023-03-28T00:49:32.613Z,98129.34
2023-03-28T00:50:38.006Z,98129.38
2023-03-28T00:51:43.561Z,98125.19
2023-03-28T00:52:49.739Z,98126.09
2023-03-28T00:53:53.431Z,98130.38
2023-03-28T00:54:57.576Z,98133.78
2023-03-28T00:56:04.240Z,98126.16
2023-03-28T00:57:07.541Z,98127.00
2023-03-28T00:58:12.372Z,98127.81
2023-03-28T00:59:16.988Z,98127.78
2023-03-28T01:00:20.982Z,98132.00
2023-03-28T01:01:23.058Z,98132.78
2023-03-28T01:02:26.021Z,98134.44
2023-03-28T01:03:30.476Z,98131.16
2023-03-28T01:04:39.145Z,98128.66
2023-03-28T01:05:42.488Z,98128.75
2023-03-28T01:06:46.633Z,98122.88
2023-03-28T01:07:56.488Z,98128.00
2023-03-28T01:08:59.629Z,98126.44
2023-03-28T01:10:05.141Z,98124.03
2023-03-28T01:11:07.276Z,98127.53
2023-03-28T01:12:11.199Z,98128.44
2023-03-28T01:13:13.743Z,98119.97
2023-03-28T01:14:20.680Z,98123.41
2023-03-28T01:15:24.692Z,98125.13
2023-03-28T01:16:32.822Z,98120.91
2023-03-28T01:17:37.919Z,98126.06
2023-03-28T01:18:41.838Z,98124.41
2023-03-28T01:19:59.046Z,98130.41
2023-03-28T01:21:26.151Z,98125.34
2023-03-28T01:23:12.182Z,98134.72
2023-03-28T01:24:40.550Z,98135.56
2023-03-28T01:26:12.099Z,98132.25
2023-03-28T01:27:19.231Z,98140.75
2023-03-28T01:28:31.218Z,98140.75
2023-03-28T01:30:01.693Z,98134.84
2023-03-28T01:31:36.073Z,98133.25
2023-03-28T01:33:05.766Z,98132.56
2023-03-28T01:34:53.284Z,98137.88
2023-03-28T01:36:10.680Z,98131.22
2023-03-28T01:37:26.024Z,98131.31
2023-03-28T01:38:35.611Z,98127.97
2023-03-28T01:39:49.112Z,98132.22
2023-03-28T01:41:02.304Z,98127.19
2023-03-28T01:42:17.884Z,98111.97
2023-03-28T01:43:27.956Z,98120.47
2023-03-28T01:44:37.919Z,98118.81
2023-03-28T01:45:45.967Z,98118.78
2023-03-28T01:46:58.150Z,98112.03
2023-03-28T01:48:04.764Z,98116.31
2023-03-28T01:49:10.314Z,98115.53
2023-03-28T01:50:18.153Z,98117.25
2023-03-28T01:51:26.168Z,98107.91
2023-03-28T01:52:36.214Z,98114.56
2023-03-28T01:53:44.641Z,98117.13
2023-03-28T01:54:52.374Z,98124.75
2023-03-28T01:56:01.941Z,98119.66
2023-03-28T01:57:10.555Z,98121.38
2023-03-28T01:58:16.989Z,98127.22
2023-03-28T01:59:27.440Z,98121.19
2023-03-28T02:01:04.364Z,98117.69
2023-03-28T02:02:11.627Z,98122.72
2023-03-28T02:03:18.720Z,98120.03
2023-03-28T02:04:37.416Z,98120.69
2023-03-28T02:05:41.065Z,98116.19
2023-03-28T02:06:48.177Z,98115.13
2023-03-28T02:07:58.357Z,98118.25
2023-03-28T02:09:10.838Z,98111.13
2023-03-28T02:10:33.639Z,98115.81
2023-03-28T02:11:39.098Z,98114.66
2023-03-28T02:13:16.099Z,98111.66
2023-03-28T02:14:37.828Z,98116.44
2023-03-28T02:16:16.755Z,98109.22
2023-03-28T02:17:41.571Z,98106.25
2023-03-28T02:19:03.632Z,98106.63
2023-03-28T02:20:19.473Z,98110.44
2023-03-28T02:21:43.451Z,98103.97
2023-03-28T02:23:26.058Z,98106.03
2023-03-28T02:24:50.498Z,98112.31
2023-03-28T02:26:12.424Z,98107.56
2023-03-28T02:27:44.527Z,98100.97
2023-03-28T02:28:55.800Z,98092.91
2023-03-28T02:30:10.544Z,98102.78
2023-03-28T02:31:13.805Z,98100.78
2023-03-28T02:32:21.579Z,98097.13
2023-03-28T02:33:33.581Z,98093.38
2023-03-28T02:34:36.497Z,98089.75
2023-03-28T02:35:48.571Z,98099.66
2023-03-28T02:36:54.974Z,98090.84
2023-03-28T02:38:04.005Z,98093.22
2023-03-28T02:39:29.324Z,98089.53
2023-03-28T02:40:47.867Z,98092.72
2023-03-28T02:42:16.963Z,98087.41
2023-03-28T02:43:35.480Z,98089.84
2023-03-28T02:44:50.050Z,98085.34
2023-03-28T02:46:07.925Z,98091.09
2023-03-28T02:47:16.961Z,98092.66
2023-03-28T02:48:30.046Z,98079.59
2023-03-28T02:49:49.934Z,98086.06
2023-03-28T02:51:06.195Z,98083.09
2023-03-28T02:52:14.826Z,98082.84
2023-03-28T02:53:22.779Z,98083.31
2023-03-28T02:54:31.050Z,98085.63
2023-03-28T02:55:58.116Z,98086.16
2023-03-28T02:57:24.283Z,98080.78
2023-03-28T02:58:34.234Z,98083.88
2023-03-28T02:59:41.279Z,98081.13
2023-03-28T03:00:44.084Z,98087.69
2023-03-28T03:01:45.978Z,98078.03
2023-03-28T03:02:51.463Z,98081.13
2023-03-28T03:03:54.464Z,98079.19
2023-03-28T03:05:01.831Z,98086.69
2023-03-28T03:06:04.321Z,98081.38
2023-03-28T03:07:09.450Z,98081.97
2023-03-28T03:08:12.679Z,98078.38
2023-03-28T03:09:16.667Z,98076.53
2023-03-28T03:10:21.974Z,98075.41
2023-03-28T03:11:27.960Z,98080.34
2023-03-28T03:12:30.958Z,98081.88
2023-03-28T03:13:33.051Z,98080.84
2023-03-28T03:14:39.045Z,98077.28
2023-03-28T03:16:06.258Z,98076.31
2023-03-28T03:17:08.614Z,98086.44
2023-03-28T03:18:12.995Z,98074.38
2023-03-28T03:19:15.389Z,98090.34
2023-03-28T03:20:19.121Z,98079.09
2023-03-28T03:21:21.861Z,98083.13
2023-03-28T03:22:25.073Z,98072.72
2023-03-28T03:23:27.273Z,98088.72
2023-03-28T03:24:34.525Z,98075.75
2023-03-28T03:25:38.521Z,98076.41
2023-03-28T03:26:57.524Z,98084.78
2023-03-28T03:27:59.355Z,98076.88
2023-03-28T03:29:02.975Z,98078.38
2023-03-28T03:30:08.296Z,98080.72
2023-03-28T03:31:29.409Z,98078.91
2023-03-28T03:32:49.788Z,98078.00
2023-03-28T03:33:52.655Z,98080.41
2023-03-28T03:34:59.372Z,98073.47
2023-03-28T03:36:04.010Z,98077.63
2023-03-28T03:37:07.132Z,98076.63
2023-03-28T03:38:09.176Z,98074.81
2023-03-28T03:39:12.065Z,98072.25
2023-03-28T03:40:14.684Z,98069.59
2023-03-28T03:41:21.836Z,98072.00
2023-03-28T03:42:24.212Z,98061.75
2023-03-28T03:43:28.347Z,98070.28
2023-03-28T03:44:30.368Z,98065.91
2023-03-28T03:45:33.240Z,98065.00
2023-03-28T03:46:35.074Z,98058.88
2023-03-28T03:47:38.445Z,98055.50
2023-03-28T03:48:49.389Z,98069.06
2023-03-28T03:49:53.128Z,98064.84
2023-03-28T03:50:54.942Z,98060.53
2023-03-28T03:51:58.066Z,98061.38
2023-03-28T03:53:00.915Z,98057.78
2023-03-28T03:54:12.055Z,98063.78
2023-03-28T03:55:14.815Z,98061.13
2023-03-28T03:56:19.225Z,98054.25
2023-03-28T03:57:31.189Z,98056.81
2023-03-28T03:58:36.410Z,98061.97
2023-03-28T03:59:44.761Z,98056.81
2023-03-28T04:00:50.696Z,98062.78
2023-03-28T04:02:12.092Z,98059.38
2023-03-28T04:03:34.298Z,98061.13
2023-03-28T04:04:40.456Z,98053.34
2023-03-28T04:05:50.855Z,98049.94
2023-03-28T04:06:53.702Z,98052.44
2023-03-28T04:07:57.554Z,98062.63
2023-03-28T04:09:06.142Z,98059.25
2023-03-28T04:10:28.510Z,98071.22
2023-03-28T04:11:31.818Z,98060.91
2023-03-28T04:12:35.003Z,98056.59
2023-03-28T04:13:37.916Z,98057.31
2023-03-28T04:14:41.268Z,98063.28
2023-03-28T04:16:23.933Z,98064.19
2023-03-28T04:17:34.706Z,98063.38
2023-03-28T04:18:40.767Z,98061.56
2023-03-28T04:19:45.819Z,98059.84
2023-03-28T04:20:53.744Z,98068.38
2023-03-28T04:22:13.412Z,98069.19
2023-03-28T04:23:25.732Z,98070.75
2023-03-28T04:24:29.748Z,98070.69
2023-03-28T04:25:55.201Z,98068.03
2023-03-28T04:27:18.045Z,98066.31
2023-03-28T04:28:25.983Z,98078.22
2023-03-28T04:29:35.920Z,98074.75
2023-03-28T04:30:58.102Z,98067.03
2023-03-28T04:32:05.609Z,98072.94
2023-03-28T04:33:34.033Z,98074.69
2023-03-28T04:34:39.234Z,98066.88
2023-03-28T04:35:48.649Z,98070.19
2023-03-28T04:36:51.010Z,98071.78
2023-03-28T04:37:57.774Z,98074.25
2023-03-28T04:39:02.407Z,98070.78
2023-03-28T04:40:28.147Z,98070.63
2023-03-28T04:41:50.162Z,98068.66
2023-03-28T04:43:02.347Z,98070.22
2023-03-28T04:44:10.584Z,98065.03
2023-03-28T04:45:21.860Z,98065.75
2023-03-28T04:46:24.014Z,98069.06
2023-03-28T04:47:27.064Z,98062.94
2023-03-28T04:48:29.078Z,98061.13
2023-03-28T04:49:32.331Z,98064.50
2023-03-28T04:50:35.943Z,98061.88
2023-03-28T04:51:39.056Z,98065.19
2023-03-28T04:52:41.887Z,98059.22
2023-03-28T04:53:44.871Z,98057.38
2023-03-28T04:55:25.795Z,98055.59
2023-03-28T04:56:27.960Z,98057.97
2023-03-28T04:57:31.849Z,98068.25
2023-03-28T04:58:41.688Z,98057.16
2023-03-28T04:59:45.276Z,98056.31
2023-03-28T05:00:56.933Z,98065.75
2023-03-28T05:02:28.899Z,98065.09
2023-03-28T05:03:39.671Z,98067.75
2023-03-28T05:04:43.288Z,98072.06
2023-03-28T05:05:46.714Z,98078.13
2023-03-28T05:06:49.898Z,98066.34
2023-03-28T05:07:52.835Z,98072.53
2023-03-28T05:08:57.710Z,98069.34
2023-03-28T05:10:03.191Z,98075.59
2023-03-28T05:11:11.841Z,98075.78
2023-03-28T05:12:13.679Z,98077.56
2023-03-28T05:13:34.794Z,98075.00
2023-03-28T05:14:46.424Z,98072.63
2023-03-28T05:15:52.198Z,98082.78
2023-03-28T05:17:10.783Z,98081.13
2023-03-28T05:18:35.897Z,98082.78
2023-03-28T05:19:39.345Z,98077.56
2023-03-28T05:20:45.709Z,98086.03
2023-03-28T05:21:48.497Z,98084.31
2023-03-28T05:22:50.331Z,98077.41
2023-03-28T05:23:53.472Z,98079.25
2023-03-28T05:24:58.354Z,98090.25
2023-03-28T05:26:02.472Z,98080.00
2023-03-28T05:27:07.291Z,98079.84
2023-03-28T05:28:10.179Z,98077.03
2023-03-28T05:29:23.065Z,98078.44
2023-03-28T05:30:27.907Z,98077.09
2023-03-28T05:31:32.787Z,98093.88
2023-03-28T05:32:53.921Z,98079.09
2023-03-28T05:33:55.850Z,98089.22
2023-03-28T05:35:13.216Z,98083.16
2023-03-28T05:36:15.187Z,98090.06
2023-03-28T05:37:18.013Z,98090.88
2023-03-28T05:38:25.280Z,98085.00
2023-03-28T05:39:31.688Z,98085.00
2023-03-28T05:40:43.660Z,98081.50
2023-03-28T05:41:45.662Z,98085.75
2023-03-28T05:42:48.475Z,98092.53
2023-03-28T05:43:53.522Z,98092.53
2023-03-28T05:45:12.627Z,98083.00
2023-03-28T05:46:31.583Z,98085.41
2023-03-28T05:47:33.772Z,98088.50
2023-03-28T05:48:36.901Z,98091.69
2023-03-28T05:49:39.095Z,98089.56
2023-03-28T05:50:41.922Z,98091.44
2023-03-28T05:51:44.287Z,98092.44
2023-03-28T05:52:47.424Z,98098.72
2023-03-28T05:53:49.546Z,98098.28
2023-03-28T05:54:52.533Z,98089.38
2023-03-28T05:55:57.283Z,98100.44
2023-03-28T05:56:59.184Z,98096.03
2023-03-28T05:58:01.998Z,98092.38
2023-03-28T05:59:12.764Z,98083.63
2023-03-28T06:00:15.744Z,98084.13
2023-03-28T06:01:23.326Z,98092.22
2023-03-28T06:02:33.462Z,98092.72
2023-03-28T06:03:40.015Z,98091.16
2023-03-28T06:04:43.508Z,98094.09
2023-03-28T06:05:49.324Z,98095.22
2023-03-28T06:06:55.065Z,98100.84
2023-03-28T06:08:02.805Z,98097.34
2023-03-28T06:09:05.182Z,98107.19
2023-03-28T06:10:21.400Z,98104.13
2023-03-28T06:11:37.648Z,98103.13
2023-03-28T06:12:43.573Z,98102.66
2023-03-28T06:13:46.705Z,98104.97
2023-03-28T06:14:49.766Z,98109.00
2023-03-28T06:16:01.530Z,98105.59
2023-03-28T06:17:09.877Z,98106.53
2023-03-28T06:18:23.694Z,98110.31
2023-03-28T06:19:26.456Z,98107.19
2023-03-28T06:20:31.225Z,98105.91
2023-03-28T06:21:33.554Z,98107.75
2023-03-28T06:22:41.356Z,98108.69
2023-03-28T06:23:46.662Z,98114.66
2023-03-28T06:25:00.310Z,98106.38
2023-03-28T06:26:08.517Z,98113.44
2023-03-28T06:27:16.651Z,98124.03
2023-03-28T06:28:19.431Z,98119.16
2023-03-28T06:29:57.562Z,98117.69
2023-03-28T06:31:00.846Z,98111.41
2023-03-28T06:32:04.173Z,98113.72
2023-03-28T06:33:07.403Z,98113.66
2023-03-28T06:34:10.693Z,98117.88
2023-03-28T06:35:25.371Z,98117.22
2023-03-28T06:36:27.242Z,98126.06
2023-03-28T06:37:30.127Z,98122.66
2023-03-28T06:38:37.511Z,98121.38
2023-03-28T06:39:41.293Z,98124.31
2023-03-28T06:40:44.962Z,98122.63
2023-03-28T06:41:47.939Z,98122.56
2023-03-28T06:42:49.907Z,98127.63
2023-03-28T06:43:58.575Z,98135.34
2023-03-28T06:45:19.833Z,98136.34
2023-03-28T06:46:30.433Z,98127.59
2023-03-28T06:47:33.441Z,98129.50
2023-03-28T06:48:36.502Z,98128.13
2023-03-28T06:50:01.054Z,98135.91
2023-03-28T06:51:12.816Z,98127.00
2023-03-28T06:52:16.887Z,98134.59
2023-03-28T06:53:22.091Z,98134.78
2023-03-28T06:54:25.303Z,98135.72
2023-03-28T06:55:27.093Z,98137.28
2023-03-28T06:56:31.966Z,98145.31
2023-03-28T06:57:34.635Z,98141.88
2023-03-28T06:58:56.742Z,98140.78
2023-03-28T07:00:02.302Z,98148.78
2023-03-28T07:01:26.365Z,98151.38
2023-03-28T07:02:41.558Z,98138.31
2023-03-28T07:03:44.945Z,98147.06
2023-03-28T07:04:53.471Z,98152.41
2023-03-28T07:05:58.588Z,98148.06
2023-03-28T07:07:01.682Z,98143.75
2023-03-28T07:08:03.567Z,98147.53
2023-03-28T07:09:07.551Z,98146.41
2023-03-28T07:10:17.392Z,98150.81
2023-03-28T07:11:19.306Z,98145.63
2023-03-28T07:12:26.228Z,98164.50
2023-03-28T07:13:29.138Z,98169.91
2023-03-28T07:14:36.666Z,98163.59
2023-03-28T07:15:38.498Z,98176.72
2023-03-28T07:16:41.510Z,98176.84
2023-03-28T07:17:45.334Z,98173.28
2023-03-28T07:18:48.281Z,98176.41
2023-03-28T07:19:57.261Z,98181.38
2023-03-28T07:21:06.932Z,98189.38
2023-03-28T07:22:09.892Z,98181.72
2023-03-28T07:23:11.850Z,98188.53
2023-03-28T07:24:15.592Z,98180.53
2023-03-28T07:25:29.627Z,98185.78
2023-03-28T07:26:32.412Z,98191.38
2023-03-28T07:27:35.310Z,98177.22
2023-03-28T07:28:37.432Z,98192.47
2023-03-28T07:29:40.687Z,98191.50
2023-03-28T07:30:42.533Z,98199.00
2023-03-28T07:31:46.553Z,98198.28
2023-03-28T07:32:54.966Z,98190.72
2023-03-28T07:34:06.387Z,98196.63
2023-03-28T07:35:09.452Z,98198.84
2023-03-28T07:36:23.033Z,98197.72
2023-03-28T07:37:29.557Z,98210.97
2023-03-28T07:38:43.321Z,98206.19
2023-03-28T07:39:45.472Z,98206.19
2023-03-28T07:40:52.730Z,98197.16
2023-03-28T07:41:55.634Z,98210.28
2023-03-28T07:42:57.560Z,98211.94
2023-03-28T07:44:00.802Z,98203.56
2023-03-28T07:45:02.695Z,98215.13
2023-03-28T07:46:08.194Z,98210.63
2023-03-28T07:47:12.022Z,98217.44
2023-03-28T07:48:13.824Z,98206.41
2023-03-28T07:49:17.614Z,98215.13
2023-03-28T07:50:19.926Z,98217.63
2023-03-28T07:51:24.563Z,98219.00
2023-03-28T07:52:26.526Z,98214.13
2023-03-28T07:53:29.638Z,98222.03
2023-03-28T07:54:34.419Z,98219.75
2023-03-28T07:55:48.459Z,98222.50
2023-03-28T07:56:57.970Z,98231.06
2023-03-28T07:58:19.274Z,98239.34
2023-03-28T07:59:21.759Z,98233.38
2023-03-28T08:00:27.648Z,98228.94
2023-03-28T08:01:48.799Z,98210.91
2023-03-28T08:02:54.045Z,98234.03
2023-03-28T08:03:57.055Z,98236.03
2023-03-28T08:05:06.473Z,98244.16
2023-03-28T08:06:24.341Z,98236.03
2023-03-28T08:07:35.540Z,98249.69
2023-03-28T08:08:38.748Z,98239.81
2023-03-28T08:09:59.061Z,98243.13
2023-03-28T08:11:03.875Z,98243.50
2023-03-28T08:12:07.094Z,98255.72
2023-03-28T08:13:08.983Z,98254.81
2023-03-28T08:14:13.611Z,98250.47
2023-03-28T08:15:16.775Z,98248.00
2023-03-28T08:16:19.895Z,98243.84
2023-03-28T08:17:23.380Z,98244.41
2023-03-28T08:18:27.632Z,98259.19
2023-03-28T08:19:30.883Z,98256.16
2023-03-28T08:20:47.804Z,98254.78
2023-03-28T08:21:52.034Z,98252.00
2023-03-28T08:22:55.694Z,98255.88
2023-03-28T08:24:25.350Z,98251.31
2023-03-28T08:25:42.413Z,98257.22
2023-03-28T08:26:48.206Z,98259.06
2023-03-28T08:27:51.705Z,98272.53
2023-03-28T08:28:55.233Z,98265.88
2023-03-28T08:29:58.013Z,98265.16
2023-03-28T08:31:01.966Z,98275.34
2023-03-28T08:32:06.350Z,98269.91
2023-03-28T08:33:10.679Z,98288.09
2023-03-28T08:34:13.993Z,98294.25
2023-03-28T08:35:17.352Z,98307.31
2023-03-28T08:36:22.731Z,98313.47
2023-03-28T08:37:25.052Z,98322.97
2023-03-28T08:38:29.596Z,98308.19
2023-03-28T08:39:32.573Z,98309.34
2023-03-28T08:40:37.237Z,98321.59
2023-03-28T08:42:12.044Z,98320.22
2023-03-28T08:43:24.794Z,98337.66
2023-03-28T08:44:48.504Z,98334.94
2023-03-28T08:45:52.539Z,98335.25
2023-03-28T08:46:57.576Z,98324.97
2023-03-28T08:48:08.702Z,98348.59
2023-03-28T08:49:13.939Z,98338.28
2023-03-28T08:50:17.466Z,98340.75
2023-03-28T08:51:25.296Z,98328.28
2023-03-28T08:52:28.109Z,98334.28
2023-03-28T08:53:37.236Z,98339.25
2023-03-28T08:54:43.801Z,98342.22
2023-03-28T08:55:47.676Z,98344.88
2023-03-28T08:56:51.431Z,98348.09
2023-03-28T08:57:55.864Z,98343.72
2023-03-28T08:59:04.909Z,98355.59
2023-03-28T09:00:14.850Z,98348.31
2023-03-28T09:01:20.926Z,98352.03
2023-03-28T09:02:25.049Z,98340.13
2023-03-28T09:03:29.410Z,98342.44
2023-03-28T09:04:37.642Z,98340.97
2023-03-28T09:05:50.939Z,98351.19
2023-03-28T09:06:57.855Z,98354.53
2023-03-28T09:08:03.612Z,98347.81
2023-03-28T09:09:26.093Z,98347.75
2023-03-28T09:10:46.138Z,98338.84
2023-03-28T09:11:58.442Z,98335.72
2023-03-28T09:13:08.274Z,98339.00
2023-03-28T09:14:23.429Z,98342.06
2023-03-28T09:15:39.534Z,98343.41
2023-03-28T09:16:55.146Z,98348.09
2023-03-28T09:18:12.032Z,98341.19
2023-03-28T09:19:36.969Z,98350.31
2023-03-28T09:21:14.602Z,98349.69
2023-03-28T09:22:27.490Z,98373.69
2023-03-28T09:23:41.904Z,98358.44
2023-03-28T09:25:20.020Z,98354.97
2023-03-28T09:26:26.122Z,98354.91
2023-03-28T09:27:47.434Z,98366.63
2023-03-28T09:28:58.776Z,98362.63
2023-03-28T09:30:11.454Z,98360.09
2023-03-28T09:31:15.488Z,98366.75
2023-03-28T09:32:22.051Z,98373.38
2023-03-28T09:33:27.905Z,98377.38
2023-03-28T09:34:37.927Z,98378.94
2023-03-28T09:35:41.851Z,98356.72
2023-03-28T09:36:48.867Z,98368.59
2023-03-28T09:37:56.689Z,98362.47
2023-03-28T09:39:00.982Z,98363.81
2023-03-28T09:40:16.437Z,98372.03
2023-03-28T09:41:48.767Z,98367.03
2023-03-28T09:43:16.888Z,98355.22
2023-03-28T09:44:52.909Z,98353.94
2023-03-28T09:46:20.379Z,98372.22
2023-03-28T09:47:34.225Z,98347.03
2023-03-28T09:48:42.620Z,98376.25
2023-03-28T09:49:47.029Z,98381.28
2023-03-28T09:50:52.488Z,98383.25
2023-03-28T09:51:56.749Z,98384.50
2023-03-28T09:52:59.284Z,98388.94
2023-03-28T09:54:07.342Z,98395.25
2023-03-28T09:55:18.101Z,98396.22
2023-03-28T09:56:27.632Z,98394.28
2023-03-28T09:58:05.494Z,98401.22
2023-03-28T09:59:27.685Z,98405.00
2023-03-28T10:00:35.464Z,98421.41
2023-03-28T10:02:26.524Z,98418.56
2023-03-28T10:03:32.295Z,98417.13
2023-03-28T10:04:39.482Z,98424.72
2023-03-28T10:06:01.973Z,98415.97
2023-03-28T10:07:28.489Z,98420.22
2023-03-28T10:08:39.920Z,98419.19
2023-03-28T10:09:56.927Z,98413.91
2023-03-28T10:11:04.631Z,98420.38
2023-03-28T10:12:09.929Z,98419.59
2023-03-28T10:13:14.150Z,98406.41
2023-03-28T10:14:34.338Z,98403.41
2023-03-28T10:15:45.968Z,98408.34
2023-03-28T10:17:04.408Z,98400.34
2023-03-28T10:18:18.220Z,98403.88
2023-03-28T10:19:24.439Z,98391.81
2023-03-28T10:20:38.182Z,98400.03
2023-03-28T10:21:42.655Z,98396.19
2023-03-28T10:22:50.319Z,98396.16
2023-03-28T10:23:59.047Z,98408.34
2023-03-28T10:25:01.675Z,98403.09
2023-03-28T10:26:06.165Z,98396.66
2023-03-28T10:27:16.556Z,98396.66
2023-03-28T10:28:28.659Z,98392.72
2023-03-28T10:29:31.055Z,98407.59
2023-03-28T10:30:35.596Z,98411.84
2023-03-28T10:31:39.593Z,98399.72
2023-03-28T10:33:24.522Z,98402.34
2023-03-28T10:34:35.051Z,98406.38
2023-03-28T10:35:57.649Z,98416.97
2023-03-28T10:36:59.581Z,98405.47
2023-03-28T10:38:16.445Z,98405.16
2023-03-28T10:39:42.899Z,98414.69
2023-03-28T10:41:25.367Z,98415.59
2023-03-28T10:42:45.958Z,98411.84
2023-03-28T10:44:19.416Z,98423.94
2023-03-28T10:45:33.416Z,98429.88
2023-03-28T10:46:37.450Z,98428.72
2023-03-28T10:47:59.895Z,98427.06
2023-03-28T10:49:05.832Z,98425.81
2023-03-28T10:50:21.141Z,98417.47
2023-03-28T10:51:25.845Z,98437.88
2023-03-28T10:52:36.885Z,98437.03
2023-03-28T10:53:55.566Z,98446.13
2023-03-28T10:55:09.557Z,98445.06
2023-03-28T10:56:41.548Z,98438.63
2023-03-28T10:57:52.097Z,98444.13
2023-03-28T10:59:06.423Z,98448.41
2023-03-28T11:00:12.991Z,98448.91
2023-03-28T11:01:19.514Z,98445.38
2023-03-28T11:02:46.637Z,98441.59
2023-03-28T11:04:07.531Z,98449.38
2023-03-28T11:05:18.477Z,98442.22
2023-03-28T11:06:24.140Z,98437.06
2023-03-28T11:07:31.224Z,98429.38
2023-03-28T11:08:56.632Z,98423.47
2023-03-28T11:10:14.571Z,98428.13
2023-03-28T11:11:45.380Z,98441.59
2023-03-28T11:13:02.759Z,98409.28
2023-03-28T11:14:21.858Z,98459.72
2023-03-28T11:15:29.511Z,98459.00
2023-03-28T11:16:47.369Z,98466.44
2023-03-28T11:18:14.929Z,98467.03
2023-03-28T11:19:27.912Z,98471.94
2023-03-28T11:20:41.165Z,98470.66
2023-03-28T11:21:49.284Z,98463.63
2023-03-28T11:23:05.631Z,98462.69
2023-03-28T11:24:26.964Z,98469.00
2023-03-28T11:25:57.118Z,98467.69
2023-03-28T11:27:23.401Z,98451.53
2023-03-28T11:28:46.545Z,98460.84
2023-03-28T11:29:56.181Z,98456.66
2023-03-28T11:31:05.089Z,98452.97
2023-03-28T11:32:18.790Z,98444.63
2023-03-28T11:33:28.266Z,98441.06
2023-03-28T11:34:40.798Z,98442.53
2023-03-28T11:35:48.607Z,98442.13
2023-03-28T11:36:54.612Z,98444.38
2023-03-28T11:38:00.984Z,98438.34
2023-03-28T11:39:08.866Z,98430.47
2023-03-28T11:40:18.413Z,98448.78
2023-03-28T11:41:33.078Z,98421.50
2023-03-28T11:42:49.391Z,98418.69
2023-03-28T11:43:53.743Z,98423.75
2023-03-28T11:45:02.700Z,98434.75
2023-03-28T11:46:07.991Z,98423.06
2023-03-28T11:47:12.458Z,98428.72
2023-03-28T11:48:20.776Z,98429.31
2023-03-28T11:49:26.677Z,98422.28
2023-03-28T11:50:34.623Z,98438.75
2023-03-28T11:51:48.047Z,98441.31
2023-03-28T11:52:55.742Z,98433.13
2023-03-28T11:54:04.166Z,98441.47
2023-03-28T11:55:16.834Z,98451.16
2023-03-28T11:56:26.556Z,98464.78
2023-03-28T11:57:52.949Z,98464.81
2023-03-28T11:58:57.889Z,98464.53
2023-03-28T12:00:11.437Z,98451.09
2023-03-28T12:01:21.577Z,98457.13
2023-03-28T12:02:37.254Z,98457.72
2023-03-28T12:03:47.213Z,98454.66
2023-03-28T12:04:54.818Z,98456.69
2023-03-28T12:06:04.842Z,98449.03
2023-03-28T12:07:13.183Z,98463.00
2023-03-28T12:08:23.605Z,98454.59
2023-03-28T12:09:31.904Z,98469.72
2023-03-28T12:10:37.219Z,98473.44
2023-03-28T12:12:03.364Z,98486.69
2023-03-28T12:13:12.065Z,98501.97
2023-03-28T12:14:38.404Z,98504.59
2023-03-28T12:15:57.459Z,98510.56
2023-03-28T12:17:01.716Z,98504.19
2023-03-28T12:18:06.916Z,98513.94
2023-03-28T12:19:12.093Z,98519.25
2023-03-28T12:20:28.029Z,98515.19
2023-03-28T12:21:34.600Z,98524.44
2023-03-28T12:22:42.656Z,98527.56
2023-03-28T12:23:59.524Z,98520.22
2023-03-28T12:25:36.202Z,98531.03
2023-03-28T12:26:59.607Z,98530.25
2023-03-28T12:28:05.620Z,98527.53
2023-03-28T12:29:16.347Z,98521.91
2023-03-28T12:30:22.956Z,98520.94
2023-03-28T12:31:29.673Z,98524.13
2023-03-28T12:32:46.789Z,98514.84
2023-03-28T12:34:00.615Z,98519.50
2023-03-28T12:35:35.251Z,98520.66
2023-03-28T12:36:49.011Z,98509.94
2023-03-28T12:37:59.518Z,98512.41
2023-03-28T12:39:05.903Z,98503.81
2023-03-28T12:40:25.294Z,98515.31
2023-03-28T12:41:31.710Z,98513.59
2023-03-28T12:42:34.910Z,98517.88
2023-03-28T12:43:43.426Z,98512.84
2023-03-28T12:44:52.014Z,98509.44
2023-03-28T12:45:57.546Z,98519.81
2023-03-28T12:47:01.836Z,98510.41
2023-03-28T12:48:11.807Z,98515.78
2023-03-28T12:49:18.660Z,98513.84
2023-03-28T12:50:27.992Z,98517.25
2023-03-28T12:51:35.433Z,98516.16
2023-03-28T12:52:38.261Z,98503.00
2023-03-28T12:53:48.455Z,98505.00
2023-03-28T12:54:59.622Z,98509.88
2023-03-28T12:56:13.550Z,98516.41
2023-03-28T12:57:45.274Z,98518.03
2023-03-28T12:59:40.198Z,98520.69
2023-03-28T13:00:59.857Z,98533.41
2023-03-28T13:02:14.842Z,98540.78
2023-03-28T13:03:39.040Z,98555.78
2023-03-28T13:04:47.288Z,98564.38
2023-03-28T13:05:58.360Z,98563.03
2023-03-28T13:07:05.527Z,98582.28
2023-03-28T13:08:13.622Z,98585.50
2023-03-28T13:09:40.379Z,98594.75
2023-03-28T13:10:46.404Z,98590.44
2023-03-28T13:11:54.360Z,98590.31
2023-03-28T13:13:08.638Z,98595.94
2023-03-28T13:14:29.234Z,98604.66
2023-03-28T13:15:57.291Z,98589.09
2023-03-28T13:17:01.426Z,98586.31
2023-03-28T13:18:27.788Z,98570.06
2023-03-28T13:19:46.828Z,98591.00
2023-03-28T13:20:51.180Z,98593.50
2023-03-28T13:21:56.188Z,98593.50
2023-03-28T13:23:02.029Z,98594.59
2023-03-28T13:24:05.162Z,98585.75
2023-03-28T13:25:27.209Z,98582.53
2023-03-28T13:26:54.753Z,98595.66
2023-03-28T13:28:00.804Z,98584.16
2023-03-28T13:29:03.712Z,98600.53
2023-03-28T13:30:07.576Z,98595.84
2023-03-28T13:31:13.105Z,98599.19
2023-03-28T13:32:16.741Z,98582.84
2023-03-28T13:33:24.823Z,98594.66
2023-03-28T13:34:33.103Z,98596.69
2023-03-28T13:35:45.820Z,98589.78
2023-03-28T13:36:51.669Z,98586.97
2023-03-28T13:37:53.613Z,98578.69
2023-03-28T13:39:21.388Z,98587.41
2023-03-28T13:40:42.518Z,98587.88
2023-03-28T13:42:01.401Z,98588.22
2023-03-28T13:43:23.361Z,98589.63